sensor_id;sensor_type;location;lat;lon;timestamp;pressure;altitude;pressure_sealevel;temperature;humidity
49645;BME280;36494;50.730;-1.932;2022-07-03T00:00:07;101398.62;;;13.73;100.00
49645;BME280;36494;50.730;-1.932;2022-07-03T00:02:31;101396.21;;;13.67;100.00
49645;BME280;36494;50.730;-1.932;2022-07-03T00:04:56;101396.08;;;13.63;100.00
49645;BME280;36494;50.730;-1.932;2022-07-03T00:07:22;101390.92;;;13.62;100.00
49645;BME280;36494;50.730;-1.932;2022-07-03T00:09:47;101388.04;;;13.61;100.00
49645;BME280;36494;50.730;-1.932;2022-07-03T00:12:12;101386.65;;;13.61;100.00
49645;BME280;36494;50.730;-1.932;2022-07-03T00:14:37;101383.94;;;13.59;100.00
49645;BME280;36494;50.730;-1.932;2022-07-03T00:17:03;101386.36;;;13.60;100.00
49645;BME280;36494;50.730;-1.932;2022-07-03T00:19:28;101385.91;;;13.60;100.00
49645;BME280;36494;50.730;-1.932;2022-07-03T00:21:56;101387.27;;;13.58;100.00
49645;BME280;36494;50.730;-1.932;2022-07-03T00:24:24;101388.18;;;13.59;100.00
49645;BME280;36494;50.730;-1.932;2022-07-03T00:26:44;101381.86;;;13.56;100.00
49645;BME280;36494;50.730;-1.932;2022-07-03T00:29:10;101380.05;;;13.55;100.00
49645;BME280;36494;50.730;-1.932;2022-07-03T00:31:34;101376.16;;;13.53;100.00
49645;BME280;36494;50.730;-1.932;2022-07-03T00:34:01;101369.77;;;13.53;100.00
49645;BME280;36494;50.730;-1.932;2022-07-03T00:36:26;101372.68;;;13.51;100.00
49645;BME280;36494;50.730;-1.932;2022-07-03T00:38:51;101374.89;;;13.50;100.00
49645;BME280;36494;50.730;-1.932;2022-07-03T00:41:25;101375.23;;;13.49;100.00
49645;BME280;36494;50.730;-1.932;2022-07-03T00:43:42;101374.30;;;13.45;100.00
49645;BME280;36494;50.730;-1.932;2022-07-03T00:46:08;101374.07;;;13.43;100.00
49645;BME280;36494;50.730;-1.932;2022-07-03T00:48:36;101372.57;;;13.42;100.00
49645;BME280;36494;50.730;-1.932;2022-07-03T00:50:59;101374.77;;;13.40;100.00
49645;BME280;36494;50.730;-1.932;2022-07-03T00:53:28;101376.71;;;13.39;100.00
49645;BME280;36494;50.730;-1.932;2022-07-03T00:55:50;101378.50;;;13.35;100.00
49645;BME280;36494;50.730;-1.932;2022-07-03T00:58:16;101376.86;;;13.32;100.00
49645;BME280;36494;50.730;-1.932;2022-07-03T01:00:40;101379.01;;;13.30;100.00
49645;BME280;36494;50.730;-1.932;2022-07-03T01:03:06;101376.88;;;13.27;100.00
49645;BME280;36494;50.730;-1.932;2022-07-03T01:05:35;101372.93;;;13.25;100.00
49645;BME280;36494;50.730;-1.932;2022-07-03T01:08:04;101369.42;;;13.21;100.00
49645;BME280;36494;50.730;-1.932;2022-07-03T01:10:30;101367.48;;;13.19;100.00
49645;BME280;36494;50.730;-1.932;2022-07-03T01:12:56;101366.11;;;13.17;100.00
49645;BME280;36494;50.730;-1.932;2022-07-03T01:15:16;101365.85;;;13.14;100.00
49645;BME280;36494;50.730;-1.932;2022-07-03T01:17:39;101368.74;;;13.13;100.00
49645;BME280;36494;50.730;-1.932;2022-07-03T01:20:04;101375.24;;;13.11;100.00
49645;BME280;36494;50.730;-1.932;2022-07-03T01:22:30;101379.99;;;13.09;100.00
49645;BME280;36494;50.730;-1.932;2022-07-03T01:25:03;101382.29;;;13.07;100.00
49645;BME280;36494;50.730;-1.932;2022-07-03T01:27:26;101383.57;;;13.07;100.00
49645;BME280;36494;50.730;-1.932;2022-07-03T01:29:51;101387.56;;;13.05;100.00
49645;BME280;36494;50.730;-1.932;2022-07-03T01:32:11;101387.22;;;13.05;100.00
49645;BME280;36494;50.730;-1.932;2022-07-03T01:34:42;101385.72;;;13.04;100.00
49645;BME280;36494;50.730;-1.932;2022-07-03T01:37:02;101391.15;;;13.03;100.00
49645;BME280;36494;50.730;-1.932;2022-07-03T01:39:26;101393.52;;;13.03;100.00
49645;BME280;36494;50.730;-1.932;2022-07-03T01:41:53;101389.60;;;13.02;100.00
49645;BME280;36494;50.730;-1.932;2022-07-03T01:44:18;101389.37;;;13.01;100.00
49645;BME280;36494;50.730;-1.932;2022-07-03T01:46:42;101392.73;;;13.00;100.00
49645;BME280;36494;50.730;-1.932;2022-07-03T01:49:09;101392.72;;;13.02;100.00
49645;BME280;36494;50.730;-1.932;2022-07-03T01:51:34;101393.05;;;13.02;100.00
49645;BME280;36494;50.730;-1.932;2022-07-03T01:53:59;101390.97;;;13.03;100.00
49645;BME280;36494;50.730;-1.932;2022-07-03T01:56:24;101391.81;;;13.02;100.00
49645;BME280;36494;50.730;-1.932;2022-07-03T01:58:49;101388.11;;;13.03;100.00
49645;BME280;36494;50.730;-1.932;2022-07-03T02:01:19;101387.30;;;13.02;100.00
49645;BME280;36494;50.730;-1.932;2022-07-03T02:03:46;101384.16;;;13.04;100.00
49645;BME280;36494;50.730;-1.932;2022-07-03T02:06:06;101383.29;;;13.02;100.00
49645;BME280;36494;50.730;-1.932;2022-07-03T02:08:36;101380.00;;;13.03;100.00
49645;BME280;36494;50.730;-1.932;2022-07-03T02:11:08;101376.87;;;13.02;100.00
49645;BME280;36494;50.730;-1.932;2022-07-03T02:13:23;101374.79;;;12.98;100.00
49645;BME280;36494;50.730;-1.932;2022-07-03T02:15:49;101379.85;;;12.99;100.00
49645;BME280;36494;50.730;-1.932;2022-07-03T02:18:21;101381.15;;;13.04;100.00
49645;BME280;36494;50.730;-1.932;2022-07-03T02:20:39;101376.30;;;13.00;100.00
49645;BME280;36494;50.730;-1.932;2022-07-03T02:23:03;101377.39;;;13.05;100.00
49645;BME280;36494;50.730;-1.932;2022-07-03T02:25:33;101378.56;;;13.05;100.00
49645;BME280;36494;50.730;-1.932;2022-07-03T02:27:56;101381.65;;;13.07;100.00
49645;BME280;36494;50.730;-1.932;2022-07-03T02:30:18;101386.35;;;13.10;100.00
49645;BME280;36494;50.730;-1.932;2022-07-03T02:32:44;101388.17;;;13.10;100.00
49645;BME280;36494;50.730;-1.932;2022-07-03T02:35:11;101383.41;;;13.16;100.00
49645;BME280;36494;50.730;-1.932;2022-07-03T02:37:43;101384.41;;;13.11;100.00
49645;BME280;36494;50.730;-1.932;2022-07-03T02:40:04;101384.96;;;13.15;100.00
49645;BME280;36494;50.730;-1.932;2022-07-03T02:42:29;101385.46;;;13.16;100.00
49645;BME280;36494;50.730;-1.932;2022-07-03T02:44:52;101386.41;;;13.14;100.00
49645;BME280;36494;50.730;-1.932;2022-07-03T02:47:23;101385.62;;;13.18;100.00
49645;BME280;36494;50.730;-1.932;2022-07-03T02:49:43;101384.55;;;13.21;100.00
49645;BME280;36494;50.730;-1.932;2022-07-03T02:52:14;101384.71;;;13.23;100.00
49645;BME280;36494;50.730;-1.932;2022-07-03T02:54:33;101390.57;;;13.24;100.00
49645;BME280;36494;50.730;-1.932;2022-07-03T02:57:04;101393.35;;;13.21;100.00
49645;BME280;36494;50.730;-1.932;2022-07-03T02:59:32;101390.91;;;13.26;100.00
49645;BME280;36494;50.730;-1.932;2022-07-03T03:01:54;101389.71;;;13.27;100.00
49645;BME280;36494;50.730;-1.932;2022-07-03T03:04:19;101389.55;;;13.27;100.00
49645;BME280;36494;50.730;-1.932;2022-07-03T03:06:42;101392.96;;;13.29;100.00
49645;BME280;36494;50.730;-1.932;2022-07-03T03:09:04;101397.65;;;13.30;100.00
49645;BME280;36494;50.730;-1.932;2022-07-03T03:11:36;101396.92;;;13.31;100.00
49645;BME280;36494;50.730;-1.932;2022-07-03T03:13:56;101398.72;;;13.29;100.00
49645;BME280;36494;50.730;-1.932;2022-07-03T03:16:20;101393.13;;;13.28;100.00
49645;BME280;36494;50.730;-1.932;2022-07-03T03:18:47;101393.05;;;13.27;100.00
49645;BME280;36494;50.730;-1.932;2022-07-03T03:21:15;101393.09;;;13.25;100.00
49645;BME280;36494;50.730;-1.932;2022-07-03T03:23:44;101391.12;;;13.19;100.00
49645;BME280;36494;50.730;-1.932;2022-07-03T03:26:01;101389.82;;;13.20;100.00
49645;BME280;36494;50.730;-1.932;2022-07-03T03:28:27;101385.49;;;13.23;100.00
49645;BME280;36494;50.730;-1.932;2022-07-03T03:30:52;101389.70;;;13.23;100.00
49645;BME280;36494;50.730;-1.932;2022-07-03T03:33:17;101389.53;;;13.18;100.00
49645;BME280;36494;50.730;-1.932;2022-07-03T03:35:42;101381.72;;;13.22;100.00
49645;BME280;36494;50.730;-1.932;2022-07-03T03:38:08;101383.02;;;13.19;100.00
49645;BME280;36494;50.730;-1.932;2022-07-03T03:40:34;101383.35;;;13.21;100.00
49645;BME280;36494;50.730;-1.932;2022-07-03T03:42:59;101384.24;;;13.24;100.00
49645;BME280;36494;50.730;-1.932;2022-07-03T03:45:25;101383.63;;;13.27;100.00
49645;BME280;36494;50.730;-1.932;2022-07-03T03:47:50;101385.36;;;13.29;100.00
49645;BME280;36494;50.730;-1.932;2022-07-03T03:50:15;101384.37;;;13.31;100.00
49645;BME280;36494;50.730;-1.932;2022-07-03T03:52:41;101381.66;;;13.30;100.00
49645;BME280;36494;50.730;-1.932;2022-07-03T03:55:07;101381.27;;;13.31;100.00
49645;BME280;36494;50.730;-1.932;2022-07-03T03:57:32;101381.64;;;13.33;100.00
49645;BME280;36494;50.730;-1.932;2022-07-03T03:59:58;101386.76;;;13.34;100.00
49645;BME280;36494;50.730;-1.932;2022-07-03T04:02:23;101387.86;;;13.37;100.00
49645;BME280;36494;50.730;-1.932;2022-07-03T04:04:48;101388.30;;;13.33;100.00
49645;BME280;36494;50.730;-1.932;2022-07-03T04:07:14;101387.26;;;13.37;100.00
49645;BME280;36494;50.730;-1.932;2022-07-03T04:09:39;101389.45;;;13.40;100.00
49645;BME280;36494;50.730;-1.932;2022-07-03T04:12:06;101390.79;;;13.42;100.00
49645;BME280;36494;50.730;-1.932;2022-07-03T04:14:29;101393.43;;;13.41;100.00
49645;BME280;36494;50.730;-1.932;2022-07-03T04:16:55;101399.64;;;13.44;100.00
49645;BME280;36494;50.730;-1.932;2022-07-03T04:19:21;101401.59;;;13.45;100.00
49645;BME280;36494;50.730;-1.932;2022-07-03T04:21:45;101400.33;;;13.48;100.00
49645;BME280;36494;50.730;-1.932;2022-07-03T04:24:11;101402.07;;;13.48;100.00
49645;BME280;36494;50.730;-1.932;2022-07-03T04:26:36;101402.93;;;13.50;100.00
49645;BME280;36494;50.730;-1.932;2022-07-03T04:29:02;101401.55;;;13.52;100.00
49645;BME280;36494;50.730;-1.932;2022-07-03T04:31:28;101394.24;;;13.53;100.00
49645;BME280;36494;50.730;-1.932;2022-07-03T04:33:53;101394.74;;;13.56;100.00
49645;BME280;36494;50.730;-1.932;2022-07-03T04:36:18;101392.41;;;13.57;100.00
49645;BME280;36494;50.730;-1.932;2022-07-03T04:38:44;101393.60;;;13.59;100.00
49645;BME280;36494;50.730;-1.932;2022-07-03T04:41:09;101392.82;;;13.61;100.00
49645;BME280;36494;50.730;-1.932;2022-07-03T04:43:35;101391.84;;;13.63;100.00
49645;BME280;36494;50.730;-1.932;2022-07-03T04:46:00;101393.91;;;13.64;100.00
49645;BME280;36494;50.730;-1.932;2022-07-03T04:48:28;101396.31;;;13.67;100.00
49645;BME280;36494;50.730;-1.932;2022-07-03T04:50:52;101401.46;;;13.69;100.00
49645;BME280;36494;50.730;-1.932;2022-07-03T04:53:17;101404.47;;;13.70;100.00
49645;BME280;36494;50.730;-1.932;2022-07-03T04:55:42;101404.87;;;13.69;100.00
49645;BME280;36494;50.730;-1.932;2022-07-03T04:58:08;101401.00;;;13.67;100.00
49645;BME280;36494;50.730;-1.932;2022-07-03T05:00:33;101400.01;;;13.71;100.00
49645;BME280;36494;50.730;-1.932;2022-07-03T05:02:59;101402.04;;;13.74;100.00
49645;BME280;36494;50.730;-1.932;2022-07-03T05:05:24;101405.14;;;13.77;100.00
49645;BME280;36494;50.730;-1.932;2022-07-03T05:07:50;101406.38;;;13.78;100.00
49645;BME280;36494;50.730;-1.932;2022-07-03T05:10:15;101407.83;;;13.81;100.00
49645;BME280;36494;50.730;-1.932;2022-07-03T05:12:41;101406.10;;;13.81;100.00
49645;BME280;36494;50.730;-1.932;2022-07-03T05:15:07;101406.23;;;13.83;100.00
49645;BME280;36494;50.730;-1.932;2022-07-03T05:17:33;101410.16;;;13.85;100.00
49645;BME280;36494;50.730;-1.932;2022-07-03T05:19:57;101409.87;;;13.85;100.00
49645;BME280;36494;50.730;-1.932;2022-07-03T05:22:22;101417.83;;;13.80;100.00
49645;BME280;36494;50.730;-1.932;2022-07-03T05:24:47;101414.49;;;13.81;100.00
49645;BME280;36494;50.730;-1.932;2022-07-03T05:27:12;101418.28;;;13.86;100.00
49645;BME280;36494;50.730;-1.932;2022-07-03T05:29:38;101417.39;;;13.89;100.00
49645;BME280;36494;50.730;-1.932;2022-07-03T05:32:04;101417.51;;;13.91;100.00
49645;BME280;36494;50.730;-1.932;2022-07-03T05:34:29;101421.01;;;13.91;100.00
49645;BME280;36494;50.730;-1.932;2022-07-03T05:36:54;101422.34;;;13.91;100.00
49645;BME280;36494;50.730;-1.932;2022-07-03T05:39:19;101425.75;;;13.92;100.00
49645;BME280;36494;50.730;-1.932;2022-07-03T05:41:44;101423.45;;;13.93;100.00
49645;BME280;36494;50.730;-1.932;2022-07-03T05:44:10;101425.78;;;13.93;100.00
49645;BME280;36494;50.730;-1.932;2022-07-03T05:46:35;101421.47;;;13.94;100.00
49645;BME280;36494;50.730;-1.932;2022-07-03T05:49:00;101418.85;;;13.94;100.00
49645;BME280;36494;50.730;-1.932;2022-07-03T05:51:25;101419.04;;;13.97;100.00
49645;BME280;36494;50.730;-1.932;2022-07-03T05:53:51;101423.01;;;13.98;100.00
49645;BME280;36494;50.730;-1.932;2022-07-03T05:56:16;101421.23;;;13.99;100.00
49645;BME280;36494;50.730;-1.932;2022-07-03T05:58:42;101423.24;;;14.00;100.00
49645;BME280;36494;50.730;-1.932;2022-07-03T06:01:08;101428.07;;;14.06;100.00
49645;BME280;36494;50.730;-1.932;2022-07-03T06:03:33;101424.01;;;14.08;100.00
49645;BME280;36494;50.730;-1.932;2022-07-03T06:05:59;101421.56;;;14.11;100.00
49645;BME280;36494;50.730;-1.932;2022-07-03T06:08:23;101418.59;;;14.16;100.00
49645;BME280;36494;50.730;-1.932;2022-07-03T06:10:49;101420.44;;;14.18;100.00
49645;BME280;36494;50.730;-1.932;2022-07-03T06:13:14;101417.01;;;14.23;100.00
49645;BME280;36494;50.730;-1.932;2022-07-03T06:15:39;101415.14;;;14.29;100.00
49645;BME280;36494;50.730;-1.932;2022-07-03T06:18:05;101416.34;;;14.35;100.00
49645;BME280;36494;50.730;-1.932;2022-07-03T06:20:30;101419.70;;;14.38;100.00
49645;BME280;36494;50.730;-1.932;2022-07-03T06:22:55;101418.31;;;14.40;100.00
49645;BME280;36494;50.730;-1.932;2022-07-03T06:25:21;101415.63;;;14.39;100.00
49645;BME280;36494;50.730;-1.932;2022-07-03T06:27:46;101417.86;;;14.38;100.00
49645;BME280;36494;50.730;-1.932;2022-07-03T06:30:12;101419.17;;;14.38;100.00
49645;BME280;36494;50.730;-1.932;2022-07-03T06:32:37;101422.16;;;14.37;100.00
49645;BME280;36494;50.730;-1.932;2022-07-03T06:35:02;101421.47;;;14.39;100.00
49645;BME280;36494;50.730;-1.932;2022-07-03T06:37:27;101425.34;;;14.41;100.00
49645;BME280;36494;50.730;-1.932;2022-07-03T06:39:53;101425.58;;;14.47;100.00
49645;BME280;36494;50.730;-1.932;2022-07-03T06:42:18;101424.23;;;14.54;100.00
49645;BME280;36494;50.730;-1.932;2022-07-03T06:44:44;101424.79;;;14.58;100.00
49645;BME280;36494;50.730;-1.932;2022-07-03T06:47:09;101424.40;;;14.62;100.00
49645;BME280;36494;50.730;-1.932;2022-07-03T06:49:34;101423.79;;;14.68;100.00
49645;BME280;36494;50.730;-1.932;2022-07-03T06:52:00;101426.51;;;14.76;100.00
49645;BME280;36494;50.730;-1.932;2022-07-03T06:54:26;101429.32;;;14.83;100.00
49645;BME280;36494;50.730;-1.932;2022-07-03T06:56:51;101436.89;;;14.91;100.00
49645;BME280;36494;50.730;-1.932;2022-07-03T06:59:16;101439.49;;;14.96;100.00
49645;BME280;36494;50.730;-1.932;2022-07-03T07:01:42;101443.07;;;15.04;100.00
49645;BME280;36494;50.730;-1.932;2022-07-03T07:04:07;101447.70;;;15.11;100.00
49645;BME280;36494;50.730;-1.932;2022-07-03T07:06:33;101447.48;;;15.12;100.00
49645;BME280;36494;50.730;-1.932;2022-07-03T07:08:58;101448.05;;;15.15;100.00
49645;BME280;36494;50.730;-1.932;2022-07-03T07:11:24;101453.85;;;15.20;100.00
49645;BME280;36494;50.730;-1.932;2022-07-03T07:13:49;101453.66;;;15.14;100.00
49645;BME280;36494;50.730;-1.932;2022-07-03T07:16:15;101454.96;;;15.19;100.00
49645;BME280;36494;50.730;-1.932;2022-07-03T07:18:40;101454.99;;;15.26;100.00
49645;BME280;36494;50.730;-1.932;2022-07-03T07:21:05;101452.86;;;15.37;100.00
49645;BME280;36494;50.730;-1.932;2022-07-03T07:23:31;101448.78;;;15.44;100.00
49645;BME280;36494;50.730;-1.932;2022-07-03T07:25:56;101449.49;;;15.45;100.00
49645;BME280;36494;50.730;-1.932;2022-07-03T07:28:22;101444.94;;;15.50;100.00
49645;BME280;36494;50.730;-1.932;2022-07-03T07:30:46;101448.68;;;15.54;100.00
49645;BME280;36494;50.730;-1.932;2022-07-03T07:33:12;101447.50;;;15.58;100.00
49645;BME280;36494;50.730;-1.932;2022-07-03T07:35:37;101444.12;;;15.62;100.00
49645;BME280;36494;50.730;-1.932;2022-07-03T07:38:02;101443.65;;;15.64;100.00
49645;BME280;36494;50.730;-1.932;2022-07-03T07:40:27;101451.32;;;15.72;100.00
49645;BME280;36494;50.730;-1.932;2022-07-03T07:42:53;101455.67;;;15.85;100.00
49645;BME280;36494;50.730;-1.932;2022-07-03T07:45:18;101451.07;;;15.98;100.00
49645;BME280;36494;50.730;-1.932;2022-07-03T07:47:43;101450.98;;;16.10;100.00
49645;BME280;36494;50.730;-1.932;2022-07-03T07:50:09;101454.88;;;16.14;100.00
49645;BME280;36494;50.730;-1.932;2022-07-03T07:52:34;101454.75;;;16.17;100.00
49645;BME280;36494;50.730;-1.932;2022-07-03T07:54:59;101454.78;;;16.24;100.00
49645;BME280;36494;50.730;-1.932;2022-07-03T07:57:24;101455.13;;;16.32;100.00
49645;BME280;36494;50.730;-1.932;2022-07-03T07:59:50;101452.74;;;16.34;100.00
49645;BME280;36494;50.730;-1.932;2022-07-03T08:02:15;101448.56;;;16.23;100.00
49645;BME280;36494;50.730;-1.932;2022-07-03T08:04:40;101452.97;;;16.28;100.00
49645;BME280;36494;50.730;-1.932;2022-07-03T08:07:05;101455.32;;;16.27;100.00
49645;BME280;36494;50.730;-1.932;2022-07-03T08:09:31;101450.00;;;16.30;100.00
49645;BME280;36494;50.730;-1.932;2022-07-03T08:11:57;101453.92;;;16.38;100.00
49645;BME280;36494;50.730;-1.932;2022-07-03T08:14:22;101448.57;;;16.39;100.00
49645;BME280;36494;50.730;-1.932;2022-07-03T08:16:47;101451.61;;;16.44;100.00
49645;BME280;36494;50.730;-1.932;2022-07-03T08:19:12;101448.98;;;16.33;100.00
49645;BME280;36494;50.730;-1.932;2022-07-03T08:21:40;101448.18;;;16.42;100.00
49645;BME280;36494;50.730;-1.932;2022-07-03T08:24:03;101449.32;;;16.49;100.00
49645;BME280;36494;50.730;-1.932;2022-07-03T08:26:28;101448.03;;;16.59;100.00
49645;BME280;36494;50.730;-1.932;2022-07-03T08:28:54;101449.82;;;16.64;100.00
49645;BME280;36494;50.730;-1.932;2022-07-03T08:31:20;101451.77;;;16.70;100.00
49645;BME280;36494;50.730;-1.932;2022-07-03T08:33:45;101449.17;;;16.73;100.00
49645;BME280;36494;50.730;-1.932;2022-07-03T08:36:10;101449.13;;;16.77;100.00
49645;BME280;36494;50.730;-1.932;2022-07-03T08:38:35;101449.92;;;16.64;100.00
49645;BME280;36494;50.730;-1.932;2022-07-03T08:41:02;101445.20;;;16.63;100.00
49645;BME280;36494;50.730;-1.932;2022-07-03T08:43:26;101448.04;;;16.83;100.00
49645;BME280;36494;50.730;-1.932;2022-07-03T08:45:52;101448.73;;;16.93;100.00
49645;BME280;36494;50.730;-1.932;2022-07-03T08:48:18;101446.00;;;16.95;100.00
49645;BME280;36494;50.730;-1.932;2022-07-03T08:50:42;101443.33;;;16.94;100.00
49645;BME280;36494;50.730;-1.932;2022-07-03T08:53:10;101443.89;;;17.07;100.00
49645;BME280;36494;50.730;-1.932;2022-07-03T08:55:33;101444.96;;;17.24;100.00
49645;BME280;36494;50.730;-1.932;2022-07-03T08:57:58;101447.40;;;17.37;100.00
49645;BME280;36494;50.730;-1.932;2022-07-03T09:00:23;101442.45;;;17.31;100.00
49645;BME280;36494;50.730;-1.932;2022-07-03T09:02:49;101440.97;;;17.40;100.00
49645;BME280;36494;50.730;-1.932;2022-07-03T09:05:15;101446.52;;;17.54;100.00
49645;BME280;36494;50.730;-1.932;2022-07-03T09:07:40;101452.25;;;17.66;100.00
49645;BME280;36494;50.730;-1.932;2022-07-03T09:10:06;101447.67;;;17.70;100.00
49645;BME280;36494;50.730;-1.932;2022-07-03T09:12:30;101447.89;;;17.77;100.00
49645;BME280;36494;50.730;-1.932;2022-07-03T09:14:55;101449.64;;;17.86;100.00
49645;BME280;36494;50.730;-1.932;2022-07-03T09:17:21;101447.75;;;17.88;100.00
49645;BME280;36494;50.730;-1.932;2022-07-03T09:19:47;101444.83;;;18.01;100.00
49645;BME280;36494;50.730;-1.932;2022-07-03T09:22:19;101443.46;;;18.09;100.00
49645;BME280;36494;50.730;-1.932;2022-07-03T09:24:36;101443.48;;;18.20;100.00
49645;BME280;36494;50.730;-1.932;2022-07-03T09:27:01;101447.26;;;18.26;100.00
49645;BME280;36494;50.730;-1.932;2022-07-03T09:29:26;101442.60;;;18.25;100.00
49645;BME280;36494;50.730;-1.932;2022-07-03T09:31:55;101446.95;;;18.00;100.00
49645;BME280;36494;50.730;-1.932;2022-07-03T09:34:21;101449.70;;;18.09;100.00
49645;BME280;36494;50.730;-1.932;2022-07-03T09:36:44;101450.85;;;18.16;100.00
49645;BME280;36494;50.730;-1.932;2022-07-03T09:39:14;101453.40;;;18.14;100.00
49645;BME280;36494;50.730;-1.932;2022-07-03T09:43:58;101453.05;;;18.39;100.00
49645;BME280;36494;50.730;-1.932;2022-07-03T09:46:24;101451.12;;;18.60;100.00
49645;BME280;36494;50.730;-1.932;2022-07-03T09:48:51;101445.32;;;18.73;100.00
49645;BME280;36494;50.730;-1.932;2022-07-03T09:51:18;101442.57;;;18.79;100.00
49645;BME280;36494;50.730;-1.932;2022-07-03T09:53:48;101445.40;;;18.92;100.00
49645;BME280;36494;50.730;-1.932;2022-07-03T09:56:05;101443.66;;;18.83;100.00
49645;BME280;36494;50.730;-1.932;2022-07-03T09:58:30;101449.19;;;19.28;100.00
49645;BME280;36494;50.730;-1.932;2022-07-03T10:03:21;101446.12;;;19.68;100.00
49645;BME280;36494;50.730;-1.932;2022-07-03T10:05:46;101445.03;;;19.74;100.00
49645;BME280;36494;50.730;-1.932;2022-07-03T10:08:13;101448.49;;;20.05;100.00
49645;BME280;36494;50.730;-1.932;2022-07-03T10:10:38;101445.69;;;20.20;100.00
49645;BME280;36494;50.730;-1.932;2022-07-03T10:13:03;101451.26;;;20.27;100.00
49645;BME280;36494;50.730;-1.932;2022-07-03T10:15:28;101444.26;;;20.67;100.00
49645;BME280;36494;50.730;-1.932;2022-07-03T10:17:54;101450.30;;;20.42;100.00
49645;BME280;36494;50.730;-1.932;2022-07-03T10:20:24;101454.55;;;20.49;100.00
49645;BME280;36494;50.730;-1.932;2022-07-03T10:22:45;101453.92;;;20.52;100.00
49645;BME280;36494;50.730;-1.932;2022-07-03T10:25:09;101456.22;;;20.40;100.00
49645;BME280;36494;50.730;-1.932;2022-07-03T10:27:34;101457.34;;;20.79;100.00
49645;BME280;36494;50.730;-1.932;2022-07-03T10:30:00;101464.82;;;20.98;100.00
49645;BME280;36494;50.730;-1.932;2022-07-03T10:32:25;101467.33;;;20.92;95.33
49645;BME280;36494;50.730;-1.932;2022-07-03T10:34:49;101470.26;;;21.01;96.56
49645;BME280;36494;50.730;-1.932;2022-07-03T10:37:17;101466.01;;;20.60;94.90
49645;BME280;36494;50.730;-1.932;2022-07-03T10:39:46;101469.01;;;19.76;100.00
49645;BME280;36494;50.730;-1.932;2022-07-03T10:42:06;101466.91;;;19.56;100.00
49645;BME280;36494;50.730;-1.932;2022-07-03T10:44:30;101468.23;;;19.84;100.00
49645;BME280;36494;50.730;-1.932;2022-07-03T10:46:55;101467.32;;;19.82;100.00
49645;BME280;36494;50.730;-1.932;2022-07-03T10:49:21;101473.33;;;19.81;100.00
49645;BME280;36494;50.730;-1.932;2022-07-03T10:51:53;101470.63;;;19.57;100.00
49645;BME280;36494;50.730;-1.932;2022-07-03T10:54:12;101476.10;;;19.68;100.00
49645;BME280;36494;50.730;-1.932;2022-07-03T10:59:02;101469.40;;;20.55;100.00
49645;BME280;36494;50.730;-1.932;2022-07-03T11:01:29;101470.25;;;20.98;100.00
49645;BME280;36494;50.730;-1.932;2022-07-03T11:03:54;101468.84;;;21.26;88.20
49645;BME280;36494;50.730;-1.932;2022-07-03T11:06:19;101472.02;;;21.44;93.75
49645;BME280;36494;50.730;-1.932;2022-07-03T11:09:01;101468.65;;;20.70;100.00
49645;BME280;36494;50.730;-1.932;2022-07-03T11:13:36;101469.94;;;20.86;99.38
49645;BME280;36494;50.730;-1.932;2022-07-03T11:16:02;101471.87;;;20.88;96.35
49645;BME280;36494;50.730;-1.932;2022-07-03T11:18:29;101473.38;;;20.92;96.40
49645;BME280;36494;50.730;-1.932;2022-07-03T11:21:11;101481.14;;;20.57;100.00
49645;BME280;36494;50.730;-1.932;2022-07-03T11:23:26;101488.21;;;20.38;100.00
49645;BME280;36494;50.730;-1.932;2022-07-03T11:25:44;101488.00;;;20.41;100.00
49645;BME280;36494;50.730;-1.932;2022-07-03T11:30:34;101489.65;;;20.09;100.00
49645;BME280;36494;50.730;-1.932;2022-07-03T11:32:59;101494.43;;;20.01;100.00
49645;BME280;36494;50.730;-1.932;2022-07-03T11:35:43;101494.81;;;19.63;100.00
49645;BME280;36494;50.730;-1.932;2022-07-03T11:37:49;101500.83;;;19.90;100.00
49645;BME280;36494;50.730;-1.932;2022-07-03T11:40:17;101508.13;;;19.91;100.00
49645;BME280;36494;50.730;-1.932;2022-07-03T11:42:40;101505.62;;;19.63;100.00
49645;BME280;36494;50.730;-1.932;2022-07-03T11:45:08;101506.92;;;19.60;100.00
49645;BME280;36494;50.730;-1.932;2022-07-03T11:47:32;101509.21;;;19.45;100.00
49645;BME280;36494;50.730;-1.932;2022-07-03T11:49:57;101510.89;;;19.71;100.00
49645;BME280;36494;50.730;-1.932;2022-07-03T11:52:32;101515.68;;;19.60;100.00
49645;BME280;36494;50.730;-1.932;2022-07-03T11:54:52;101515.80;;;19.50;100.00
49645;BME280;36494;50.730;-1.932;2022-07-03T11:57:13;101515.73;;;19.30;100.00
49645;BME280;36494;50.730;-1.932;2022-07-03T11:59:38;101526.84;;;19.50;100.00
49645;BME280;36494;50.730;-1.932;2022-07-03T12:02:03;101527.66;;;19.35;100.00
49645;BME280;36494;50.730;-1.932;2022-07-03T12:04:28;101530.12;;;19.42;100.00
49645;BME280;36494;50.730;-1.932;2022-07-03T12:06:57;101533.46;;;19.32;100.00
49645;BME280;36494;50.730;-1.932;2022-07-03T12:09:21;101536.70;;;19.10;100.00
49645;BME280;36494;50.730;-1.932;2022-07-03T12:11:55;101535.47;;;18.88;100.00
49645;BME280;36494;50.730;-1.932;2022-07-03T12:14:12;101534.82;;;18.96;100.00
49645;BME280;36494;50.730;-1.932;2022-07-03T12:16:35;101534.44;;;19.15;100.00
49645;BME280;36494;50.730;-1.932;2022-07-03T12:19:04;101534.00;;;19.10;100.00
49645;BME280;36494;50.730;-1.932;2022-07-03T12:21:35;101531.07;;;19.19;100.00
49645;BME280;36494;50.730;-1.932;2022-07-03T12:23:52;101530.42;;;19.20;100.00
49645;BME280;36494;50.730;-1.932;2022-07-03T12:26:27;101533.35;;;19.03;100.00
49645;BME280;36494;50.730;-1.932;2022-07-03T12:28:42;101531.69;;;19.12;100.00
49645;BME280;36494;50.730;-1.932;2022-07-03T12:31:08;101537.63;;;19.08;100.00